Time;durP1;ratioP1;P1;durP2;ratioP2;P2;SDS_P1;SDS_P2;PMS_P1;PMS_P2;Temp;Humidity;BMP_temperature;BMP_pressure;BME280_temperature;BME280_humidity;BME280_pressure;Samples;Min_cycle;Max_cycle;Signal;HPM_P1;HPM_P2
2021/12/19 00:02:46;;;;;;;13.70;7.10;;;;;;;19.83;53.10;98168.72;10401470;28;20296;-23
2021/12/19 00:13:06;;;;;;;11.43;7.35;;;;;;;19.80;53.27;98166.09;10405601;28;20144;-23
2021/12/19 00:18:07;;;;;;;10.77;7.35;;;;;;;19.81;53.36;98167.81;10406621;28;20068;-22
2021/12/19 00:23:08;;;;;;;13.67;6.20;;;;;;;19.79;53.53;98174.56;10400747;28;20044;-23
2021/12/19 00:28:08;;;;;;;9.32;7.03;;;;;;;19.78;53.60;98165.22;10407760;28;20037;-23
2021/12/19 00:33:09;;;;;;;11.88;7.50;;;;;;;19.81;53.58;98167.81;10399469;28;20037;-23
2021/12/19 00:38:09;;;;;;;9.95;6.93;;;;;;;19.79;53.58;98154.22;10401375;28;20061;-23
2021/12/19 00:43:22;;;;;;;13.57;7.50;;;;;;;19.84;53.46;98155.16;10403875;28;20389;-23
2021/12/19 00:48:22;;;;;;;10.02;6.82;;;;;;;19.86;53.10;98153.50;10402984;28;20303;-23
2021/12/19 00:53:22;;;;;;;11.02;6.40;;;;;;;19.80;53.49;98155.94;10405022;28;20058;-23
2021/12/19 00:58:23;;;;;;;11.98;6.53;;;;;;;19.81;53.48;98155.09;10398392;28;20443;-23
2021/12/19 01:03:24;;;;;;;10.70;6.35;;;;;;;19.78;53.51;98161.00;10388906;28;20033;-23
2021/12/19 01:08:25;;;;;;;8.82;5.97;;;;;;;19.78;53.83;98168.63;10404040;28;20041;-23
2021/12/19 01:13:25;;;;;;;9.43;5.72;;;;;;;19.78;53.47;98170.31;10401455;28;20038;-22
2021/12/19 01:18:26;;;;;;;10.73;6.80;;;;;;;19.79;53.42;98182.19;10406343;28;20041;-23
2021/12/19 01:23:26;;;;;;;12.05;6.47;;;;;;;19.80;53.49;98182.22;10399275;28;20053;-23
2021/12/19 01:28:27;;;;;;;10.50;5.93;;;;;;;19.84;53.16;98190.75;10404135;28;20033;-23
2021/12/19 01:33:27;;;;;;;9.98;5.78;;;;;;;19.83;53.53;98189.88;10405391;28;20056;-23
2021/12/19 01:38:28;;;;;;;10.77;6.18;;;;;;;19.84;53.23;98188.22;10400048;28;20069;-23
2021/12/19 01:43:31;;;;;;;11.57;6.20;;;;;;;19.73;53.50;98164.28;10397776;28;20100;-23
2021/12/19 01:48:31;;;;;;;9.25;6.65;;;;;;;19.80;53.68;98178.81;10404141;28;20060;-23
2021/12/19 01:53:32;;;;;;;9.68;5.90;;;;;;;19.81;53.35;98175.44;10403672;28;20065;-23
2021/12/19 01:58:34;;;;;;;10.02;5.93;;;;;;;19.79;53.43;98162.72;10411331;28;20052;-23
2021/12/19 02:03:36;;;;;;;8.90;5.78;;;;;;;19.78;53.77;98145.75;10411301;28;20048;-23
2021/12/19 02:08:36;;;;;;;9.05;5.80;;;;;;;19.70;53.38;98121.03;10408994;28;20510;-23
2021/12/19 02:13:38;;;;;;;8.05;5.55;;;;;;;19.82;53.49;98141.56;10408986;28;20048;-23
2021/12/19 02:18:38;;;;;;;6.60;5.15;;;;;;;19.85;53.39;98139.09;10406265;28;20080;-23
2021/12/19 02:23:38;;;;;;;9.13;5.68;;;;;;;19.83;53.42;98138.22;10421821;28;20120;-24
2021/12/19 02:28:39;;;;;;;8.70;5.67;;;;;;;19.73;53.38;98121.94;10411228;28;20044;-23
2021/12/19 02:33:43;;;;;;;11.45;4.85;;;;;;;19.80;53.45;98130.50;10411847;28;20837;-23
2021/12/19 02:49:19;;;;;;;7.65;5.28;;;;;;;19.69;53.52;98096.44;10422793;28;20037;-22
2021/12/19 02:54:21;;;;;;;7.78;4.90;;;;;;;19.78;53.51;98109.31;10410893;28;20045;-23
2021/12/19 02:59:22;;;;;;;7.65;5.78;;;;;;;19.82;53.36;98108.50;10401868;28;20118;-23
2021/12/19 03:04:22;;;;;;;5.95;4.80;;;;;;;19.84;53.23;98114.50;10410435;28;20056;-23
2021/12/19 03:20:00;;;;;;;7.00;4.28;;;;;;;19.79;53.53;98100.84;10403761;28;20038;-22
2021/12/19 03:25:01;;;;;;;8.45;4.95;;;;;;;19.80;53.59;98103.44;10410403;28;20479;-23
2021/12/19 03:30:04;;;;;;;8.37;5.37;;;;;;;19.78;53.59;98105.09;10409052;28;20041;-23
2021/12/19 03:35:06;;;;;;;7.57;4.85;;;;;;;19.78;53.74;98099.13;10405123;28;20292;-23
2021/12/19 03:40:10;;;;;;;6.47;4.18;;;;;;;19.80;53.33;98098.34;10409571;28;20064;-23
2021/12/19 03:45:13;;;;;;;7.20;4.65;;;;;;;19.78;53.51;98083.88;10404050;28;20037;-23
2021/12/19 03:50:21;;;;;;;6.50;4.78;;;;;;;19.86;53.29;98089.97;10407619;28;20033;-23
2021/12/19 03:55:24;;;;;;;6.03;4.15;;;;;;;19.82;53.61;98101.75;10408683;28;20032;-23
2021/12/19 04:00:27;;;;;;;8.90;4.93;;;;;;;19.84;53.46;98089.91;10407680;28;20040;-23
2021/12/19 04:05:28;;;;;;;7.07;4.60;;;;;;;19.81;53.67;98089.88;10400680;28;20035;-23
2021/12/19 04:10:28;;;;;;;6.00;4.70;;;;;;;19.81;53.54;98089.00;10408616;28;20041;-23
2021/12/19 04:15:29;;;;;;;5.43;3.63;;;;;;;19.80;53.68;98079.69;10406807;28;20785;-23
2021/12/19 04:20:30;;;;;;;7.03;4.40;;;;;;;19.80;53.65;98072.06;10401283;28;20033;-23
2021/12/19 04:25:30;;;;;;;6.43;4.95;;;;;;;19.77;53.43;98061.84;10407924;28;20045;-23
2021/12/19 04:30:31;;;;;;;4.57;3.75;;;;;;;19.80;53.54;98072.06;10404104;28;20116;-23
2021/12/19 04:35:36;;;;;;;5.78;4.03;;;;;;;19.84;53.37;98069.59;10402821;28;20033;-23
2021/12/19 04:40:54;;;;;;;6.40;5.22;;;;;;;19.84;53.39;98063.66;10407766;28;20041;-23
2021/12/19 04:51:46;;;;;;;4.65;3.63;;;;;;;19.82;53.17;98068.72;10404847;28;20037;-24
2021/12/19 04:57:33;;;;;;;6.65;4.10;;;;;;;19.66;53.50;98043.03;10393756;28;20048;-23
2021/12/19 05:02:49;;;;;;;8.05;3.85;;;;;;;19.78;53.67;98073.72;10405067;28;20045;-23
2021/12/19 05:18:08;;;;;;;7.07;4.25;;;;;;;19.83;53.79;98056.88;10405013;28;20498;-23
2021/12/19 05:23:19;;;;;;;6.13;3.90;;;;;;;19.89;53.69;98059.50;10387565;28;20048;-23
2021/12/19 05:28:19;;;;;;;5.47;4.18;;;;;;;19.88;53.67;98052.69;10404379;28;20660;-23
2021/12/19 05:33:20;;;;;;;4.67;3.87;;;;;;;19.84;53.60;98053.50;10405881;28;20117;-22
2021/12/19 05:48:58;;;;;;;4.03;3.53;;;;;;;19.81;53.94;98040.72;10403437;28;20030;-23
2021/12/19 05:53:59;;;;;;;7.93;3.60;;;;;;;19.81;54.01;98043.25;10405308;28;20033;-22
2021/12/19 05:58:59;;;;;;;5.60;3.78;;;;;;;19.78;54.33;98030.53;10403066;28;20041;-23
2021/12/19 06:04:00;;;;;;;4.53;3.50;;;;;;;19.80;54.16;98026.31;10404336;28;20060;-23
2021/12/19 06:09:01;;;;;;;7.93;3.72;;;;;;;19.77;54.07;98011.88;10404954;28;20060;-23
2021/12/19 06:14:01;;;;;;;6.60;4.13;;;;;;;19.74;54.07;98000.78;10401426;28;20068;-23
2021/12/19 06:19:01;;;;;;;5.07;3.50;;;;;;;19.80;54.18;98000.91;10401040;28;20428;-23
2021/12/19 06:24:02;;;;;;;4.90;3.40;;;;;;;19.78;54.14;97992.41;10402129;28;20411;-23
2021/12/19 06:29:04;;;;;;;4.75;3.50;;;;;;;19.78;54.29;97992.41;10401427;28;20296;-23
2021/12/19 06:34:04;;;;;;;3.97;3.35;;;;;;;19.78;54.28;97987.31;10400903;28;20041;-23
2021/12/19 06:39:05;;;;;;;4.40;3.42;;;;;;;19.76;54.65;97984.75;10403050;28;20037;-23
2021/12/19 06:44:06;;;;;;;4.33;3.23;;;;;;;19.78;54.23;97984.78;10409190;28;20041;-23
2021/12/19 06:49:06;;;;;;;4.97;3.13;;;;;;;19.78;54.43;97993.28;10409797;28;20289;-23
2021/12/19 06:54:07;;;;;;;4.67;2.90;;;;;;;19.80;54.29;97988.19;10411568;28;20029;-23
2021/12/19 06:59:07;;;;;;;3.37;2.80;;;;;;;19.80;53.93;97995.81;10410447;28;20033;-23
2021/12/19 07:04:08;;;;;;;4.97;3.60;;;;;;;19.78;54.36;97992.41;10407375;28;20292;-23
2021/12/19 07:09:09;;;;;;;3.88;3.03;;;;;;;19.77;54.15;97995.78;10407277;28;20710;-23
2021/12/19 07:14:09;;;;;;;4.70;3.17;;;;;;;19.77;54.24;98000.88;10409681;28;20033;-23
2021/12/19 07:19:10;;;;;;;7.07;3.70;;;;;;;19.80;54.57;98000.91;10400635;28;20029;-23
2021/12/19 07:24:10;;;;;;;5.37;3.33;;;;;;;19.81;54.35;98000.06;10409440;28;20515;-23
2021/12/19 07:29:11;;;;;;;4.93;3.70;;;;;;;19.80;54.50;97990.72;10403336;28;20331;-23
2021/12/19 07:34:11;;;;;;;8.40;3.80;;;;;;;19.81;54.40;97992.44;10405471;28;20726;-22
2021/12/19 07:39:24;;;;;;;4.78;3.72;;;;;;;19.83;54.14;97981.47;10396289;28;20041;-22
2021/12/19 07:44:24;;;;;;;7.65;3.70;;;;;;;19.85;54.37;97976.41;10401871;28;20029;-22
2021/12/19 07:49:24;;;;;;;6.83;3.03;;;;;;;19.87;53.99;97967.13;10403992;28;20041;-23
2021/12/19 07:54:25;;;;;;;6.75;3.95;;;;;;;19.56;51.18;97947.16;10409057;28;20279;-23
2021/12/19 07:59:25;;;;;;;11.77;5.30;;;;;;;19.32;48.07;97959.47;10411856;28;20029;-23
2021/12/19 08:04:25;;;;;;;16.27;5.70;;;;;;;19.16;46.39;97970.19;10407423;28;20292;-23
2021/12/19 08:09:38;;;;;;;15.17;6.93;;;;;;;19.10;45.33;97957.38;10410859;28;20280;-23
2021/12/19 08:14:38;;;;;;;8.05;6.05;;;;;;;19.03;44.23;97956.44;10406655;28;20292;-23
2021/12/19 08:19:38;;;;;;;8.20;6.97;;;;;;;19.00;43.29;97951.28;10403620;28;20458;-23
2021/12/19 08:24:39;;;;;;;13.07;9.07;;;;;;;19.07;43.08;97957.31;10409849;28;20519;-23
2021/12/19 08:29:39;;;;;;;13.38;8.00;;;;;;;19.20;42.71;97944.06;10407734;28;20040;-23
2021/12/19 08:34:40;;;;;;;15.52;9.25;;;;;;;19.35;42.45;97941.75;10407105;28;20021;-23
2021/12/19 08:39:41;;;;;;;14.27;7.40;;;;;;;19.51;42.85;97938.63;10407254;28;20053;-23
2021/12/19 08:44:43;;;;;;;11.55;6.75;;;;;;;19.28;42.20;97940.81;10405685;28;20492;-23
2021/12/19 08:49:43;;;;;;;10.27;6.40;;;;;;;19.19;41.33;97937.25;10405668;28;20030;-23
2021/12/19 08:54:44;;;;;;;6.68;5.03;;;;;;;19.18;41.13;97940.59;10407559;28;20076;-23
2021/12/19 08:59:44;;;;;;;8.50;5.85;;;;;;;18.90;40.79;97915.56;10402244;28;20431;-23
2021/12/19 09:04:45;;;;;;;8.07;6.50;;;;;;;19.02;40.60;97928.47;10403474;28;20044;-23
2021/12/19 09:09:45;;;;;;;10.05;7.50;;;;;;;19.04;40.92;97921.75;10407219;28;20040;-23
2021/12/19 09:14:46;;;;;;;9.60;7.85;;;;;;;18.92;41.06;97935.06;10396991;28;20025;-23
2021/12/19 09:19:46;;;;;;;14.57;7.93;;;;;;;18.96;41.06;97918.22;10399748;28;20595;-23
2021/12/19 09:24:47;;;;;;;8.88;7.72;;;;;;;19.04;40.60;97934.44;10404066;28;20300;-22
2021/12/19 09:29:48;;;;;;;8.77;7.40;;;;;;;18.93;41.08;97938.47;10405240;28;20045;-22
2021/12/19 09:34:49;;;;;;;9.20;6.73;;;;;;;19.79;44.00;97930.56;10401076;28;20041;-23
2021/12/19 09:39:50;;;;;;;10.98;7.68;;;;;;;19.70;44.95;97938.06;10406310;28;20275;-23
2021/12/19 09:44:52;;;;;;;16.75;10.45;;;;;;;19.75;45.53;97931.38;10399767;28;20114;-22
2021/12/19 09:49:53;;;;;;;25.55;14.63;;;;;;;19.82;46.02;97933.16;10403939;28;20385;-22
2021/12/19 09:54:53;;;;;;;30.25;17.42;;;;;;;19.88;46.65;97933.25;10405011;28;20037;-22
2021/12/19 09:59:55;;;;;;;29.70;16.30;;;;;;;19.91;47.13;97934.13;10403234;28;20030;-23
2021/12/19 10:04:56;;;;;;;25.02;15.98;;;;;;;20.01;47.21;97923.25;10404102;28;20064;-22
2021/12/19 10:10:01;;;;;;;33.25;18.30;;;;;;;20.07;47.52;97915.75;10405030;28;20099;-22
2021/12/19 10:15:09;;;;;;;32.65;19.60;;;;;;;20.09;47.59;97908.16;10404009;28;20026;-22
2021/12/19 10:20:12;;;;;;;30.77;18.33;;;;;;;20.07;48.18;97892.88;10405178;28;20042;-22
2021/12/19 10:25:31;;;;;;;32.58;16.95;;;;;;;20.09;48.46;97877.63;10412787;28;20124;-22
2021/12/19 10:30:46;;;;;;;26.98;12.93;;;;;;;20.12;48.77;97870.03;10405196;28;20092;-22
2021/12/19 10:35:56;;;;;;;29.40;15.77;;;;;;;20.13;48.93;97848.84;10407785;28;20055;-22
2021/12/19 10:41:00;;;;;;;25.05;13.90;;;;;;;20.15;49.26;97847.16;10410764;28;20388;-22
2021/12/19 10:46:04;;;;;;;22.13;14.05;;;;;;;20.13;49.28;97844.63;10406207;28;20044;-22
2021/12/19 10:51:10;;;;;;;19.90;11.77;;;;;;;19.73;47.44;97831.38;10409900;28;20095;-23
2021/12/19 10:56:17;;;;;;;21.47;13.53;;;;;;;19.99;48.83;97828.31;10411622;28;20055;-22
2021/12/19 11:01:19;;;;;;;33.95;16.23;;;;;;;20.05;50.55;97819.94;10405390;28;20375;-22
2021/12/19 11:06:27;;;;;;;33.25;14.93;;;;;;;20.07;50.19;97823.34;10405998;28;20129;-22
2021/12/19 11:11:33;;;;;;;28.23;14.30;;;;;;;20.09;49.98;97806.44;10409602;28;20044;-22
2021/12/19 11:16:35;;;;;;;35.92;16.17;;;;;;;20.13;50.07;97803.94;10408229;28;20037;-22
2021/12/19 11:21:37;;;;;;;26.58;14.35;;;;;;;20.17;50.32;97809.94;10403217;28;20042;-22
2021/12/19 11:26:39;;;;;;;26.55;13.85;;;;;;;20.18;50.29;97793.81;10402338;28;20116;-22
2021/12/19 11:31:42;;;;;;;21.75;12.13;;;;;;;19.98;48.71;97790.16;10408237;28;20068;-22
2021/12/19 11:36:48;;;;;;;28.40;12.32;;;;;;;19.88;47.38;97776.53;10403657;28;20041;-23
2021/12/19 11:42:04;;;;;;;18.40;11.77;;;;;;;19.42;46.53;97768.34;10407691;28;20411;-23
2021/12/19 11:47:10;;;;;;;23.33;11.40;;;;;;;19.88;47.50;97755.31;10407949;28;20044;-23
2021/12/19 11:52:30;;;;;;;33.27;13.53;;;;;;;20.09;50.48;97745.44;10407337;28;20855;-22
2021/12/19 11:57:30;;;;;;;24.15;12.05;;;;;;;20.14;50.55;97734.47;10403927;28;20112;-22
2021/12/19 12:02:31;;;;;;;32.77;12.93;;;;;;;20.16;50.03;97725.16;10409513;28;20676;-22
2021/12/19 12:08:07;;;;;;;22.20;12.83;;;;;;;20.21;50.08;97704.84;10408089;28;20030;-22
2021/12/19 12:13:23;;;;;;;22.35;12.93;;;;;;;20.21;51.52;97690.44;10408756;28;20053;-22
2021/12/19 12:18:33;;;;;;;21.77;11.82;;;;;;;20.21;50.27;97687.03;10400810;28;20090;-22
2021/12/19 12:23:33;;;;;;;21.40;11.32;;;;;;;20.21;50.41;97675.19;10401553;28;20042;-22
2021/12/19 12:28:34;;;;;;;19.77;12.20;;;;;;;20.18;50.69;97669.22;10403651;28;20033;-22
2021/12/19 12:33:36;;;;;;;19.88;10.75;;;;;;;20.18;50.56;97669.22;10399620;28;20029;-22
2021/12/19 12:38:37;;;;;;;18.67;10.35;;;;;;;20.16;50.49;97650.53;10402601;28;20099;-22
2021/12/19 12:43:43;;;;;;;18.02;11.02;;;;;;;20.14;50.18;97637.84;10404181;28;20037;-22
2021/12/19 12:48:58;;;;;;;19.95;11.02;;;;;;;20.22;50.98;97640.44;10406083;28;20090;-22
2021/12/19 12:54:07;;;;;;;26.40;14.38;;;;;;;20.29;51.38;97642.19;10406047;28;20630;-22
2021/12/19 12:59:09;;;;;;;31.83;12.55;;;;;;;20.26;51.78;97640.47;10406540;28;20557;-22
2021/12/19 13:04:13;;;;;;;23.55;12.38;;;;;;;20.26;51.29;97619.28;10405659;28;20033;-22
2021/12/19 13:09:30;;;;;;;32.08;12.65;;;;;;;20.33;51.86;97623.56;10406454;28;20041;-22
2021/12/19 13:14:33;;;;;;;22.55;11.40;;;;;;;20.30;51.81;97603.19;10402745;28;20021;-22
2021/12/19 13:19:45;;;;;;;27.50;12.35;;;;;;;20.29;51.75;97602.34;10400492;28;20052;-21
2021/12/19 13:24:47;;;;;;;28.60;11.75;;;;;;;20.37;52.15;97599.84;10405525;28;20389;-23
2021/12/19 13:30:09;;;;;;;29.00;11.55;;;;;;;20.37;52.75;97605.81;10403824;28;20068;-22
2021/12/19 13:35:19;;;;;;;36.28;11.73;;;;;;;20.42;52.90;97605.00;10399916;28;20037;-22
2021/12/19 13:40:23;;;;;;;29.70;13.88;;;;;;;20.38;52.08;97596.47;10405656;28;20033;-22
2021/12/19 13:45:37;;;;;;;38.30;14.27;;;;;;;20.19;51.47;97584.47;10399262;28;20029;-22
2021/12/19 13:50:41;;;;;;;47.22;16.85;;;;;;;20.29;51.99;97589.63;10399611;28;20172;-22
2021/12/19 13:55:48;;;;;;;35.50;14.32;;;;;;;20.32;51.90;97586.25;10409324;28;20037;-21
2021/12/19 14:00:52;;;;;;;43.75;15.35;;;;;;;20.33;51.75;97567.63;10412187;28;20484;-21
2021/12/19 14:05:56;;;;;;;41.17;16.50;;;;;;;20.25;51.85;97571.81;10412992;28;20551;-22
2021/12/19 14:11:16;;;;;;;28.05;12.75;;;;;;;20.36;51.93;97576.09;10413572;28;20049;-22
2021/12/19 14:16:28;;;;;;;32.60;14.52;;;;;;;20.42;52.20;97577.00;10410405;28;20033;-22
2021/12/19 14:21:38;;;;;;;29.15;13.30;;;;;;;19.75;47.37;97575.63;10406605;28;20033;-22
2021/12/19 14:26:39;;;;;;;20.13;11.93;;;;;;;19.98;47.16;97563.94;10406655;28;20037;-22
2021/12/19 14:32:07;;;;;;;30.55;11.52;;;;;;;20.11;48.21;97560.69;10409366;28;20041;-22
2021/12/19 14:37:17;;;;;;;20.77;9.35;;;;;;;19.60;45.63;97565.31;10405856;28;20494;-21
2021/12/19 14:42:19;;;;;;;22.25;10.13;;;;;;;19.96;47.32;97556.31;10405449;28;20646;-22
2021/12/19 14:47:34;;;;;;;18.48;9.35;;;;;;;20.05;48.20;97551.34;10411991;28;20249;-22
2021/12/19 14:52:34;;;;;;;25.55;9.10;;;;;;;20.17;48.44;97550.56;10410153;28;20056;-22
2021/12/19 14:57:35;;;;;;;25.13;9.20;;;;;;;20.24;48.75;97549.75;10410240;28;20104;-22
2021/12/19 15:02:35;;;;;;;23.83;8.67;;;;;;;20.23;49.29;97548.91;10410553;28;20474;-22
2021/12/19 15:07:42;;;;;;;26.33;9.47;;;;;;;20.16;49.03;97543.75;10409499;28;20052;-22
2021/12/19 15:12:43;;;;;;;20.42;9.65;;;;;;;20.09;47.30;97542.03;10410020;28;20288;-22
2021/12/19 15:17:44;;;;;;;21.70;9.95;;;;;;;20.07;47.19;97529.31;10410059;28;20035;-22
2021/12/19 15:22:44;;;;;;;22.23;9.30;;;;;;;20.15;49.38;97536.97;10404573;28;20499;-22
2021/12/19 15:27:45;;;;;;;14.50;8.52;;;;;;;20.14;49.63;97525.09;10409825;28;20041;-21
2021/12/19 15:32:45;;;;;;;17.02;9.55;;;;;;;20.21;49.74;97521.75;10402332;28;20087;-22
2021/12/19 15:37:46;;;;;;;18.00;9.95;;;;;;;20.26;49.80;97517.56;10404119;28;20410;-22
2021/12/19 15:42:46;;;;;;;17.20;9.13;;;;;;;20.34;50.00;97503.19;10407420;28;20029;-22
2021/12/19 15:47:47;;;;;;;17.70;8.80;;;;;;;20.63;51.25;97513.50;10409424;28;20411;-21
2021/12/19 15:52:47;;;;;;;21.57;9.00;;;;;;;20.51;49.81;97503.28;10404123;28;20045;-23
2021/12/19 15:57:48;;;;;;;19.80;8.93;;;;;;;20.38;50.37;97500.69;10409409;28;20078;-22
2021/12/19 16:02:50;;;;;;;26.15;10.45;;;;;;;20.40;50.69;97498.97;10402982;28;20029;-22
2021/12/19 16:07:52;;;;;;;20.73;9.73;;;;;;;20.36;50.93;97489.63;10407895;28;20037;-22
2021/12/19 16:12:52;;;;;;;16.80;9.68;;;;;;;20.34;48.91;97493.03;10404875;28;20125;-22
2021/12/19 16:17:55;;;;;;;31.30;12.17;;;;;;;20.06;46.35;97491.16;10406755;28;20041;-22
2021/12/19 16:22:56;;;;;;;27.73;9.25;;;;;;;18.74;47.03;97484.88;10402281;28;20519;-22
2021/12/19 16:27:56;;;;;;;20.90;9.10;;;;;;;19.60;47.07;97484.03;10402639;28;20072;-22
2021/12/19 16:32:57;;;;;;;17.70;8.97;;;;;;;19.87;47.70;97484.22;10407444;28;20030;-22
2021/12/19 16:38:00;;;;;;;15.77;8.75;;;;;;;20.05;49.13;97479.28;10402467;28;20037;-22
2021/12/19 16:48:26;;;;;;;17.15;8.15;;;;;;;20.17;49.52;97466.66;10408207;28;20108;-22
2021/12/19 16:53:28;;;;;;;14.75;7.07;;;;;;;20.30;50.16;97478.56;10404982;28;20043;-22
2021/12/19 16:58:30;;;;;;;14.27;8.15;;;;;;;20.36;49.43;97481.16;10400410;28;20030;-22
2021/12/19 17:03:31;;;;;;;14.15;7.25;;;;;;;20.28;49.85;97467.56;10406925;28;20056;-22
2021/12/19 17:08:32;;;;;;;12.80;7.13;;;;;;;20.32;49.47;97480.28;10405658;28;20032;-22
2021/12/19 17:13:39;;;;;;;10.07;8.15;;;;;;;20.35;50.11;97484.53;10404222;28;20033;-22
2021/12/19 17:18:40;;;;;;;16.52;8.15;;;;;;;20.31;50.91;97490.44;10399887;28;20813;-22
2021/12/19 17:23:41;;;;;;;29.47;7.57;;;;;;;20.30;50.55;97488.75;10404016;28;20161;-22
2021/12/19 17:28:42;;;;;;;15.23;7.45;;;;;;;20.22;51.13;97473.47;10392268;28;20052;-22
2021/12/19 17:33:43;;;;;;;28.05;8.30;;;;;;;20.28;51.91;97487.91;10391797;28;20488;-21
2021/12/19 17:38:44;;;;;;;18.60;8.98;;;;;;;20.24;52.52;97481.94;10390397;28;20033;-22
2021/12/19 17:43:46;;;;;;;13.77;6.93;;;;;;;20.26;51.59;97484.50;10395101;28;20065;-22
2021/12/19 17:48:48;;;;;;;22.95;9.68;;;;;;;20.24;52.19;97486.16;10399093;28;20467;-23
2021/12/19 17:53:49;;;;;;;19.88;8.32;;;;;;;20.24;52.72;97478.53;10400237;28;20476;-22
2021/12/19 17:58:49;;;;;;;16.85;8.10;;;;;;;20.24;53.15;97476.00;10395749;28;20045;-23
2021/12/19 18:03:57;;;;;;;21.00;8.43;;;;;;;20.28;52.66;97472.63;10397487;28;20029;-22
2021/12/19 18:08:59;;;;;;;21.33;9.07;;;;;;;20.26;53.19;97470.06;10402124;28;20037;-22
2021/12/19 18:14:00;;;;;;;15.68;8.43;;;;;;;20.29;53.19;97474.34;10399530;28;20069;-22
2021/12/19 18:19:00;;;;;;;19.42;7.50;;;;;;;20.19;53.48;97470.88;10392977;28;20117;-22
2021/12/19 18:24:01;;;;;;;17.95;7.40;;;;;;;20.25;53.02;97458.22;10397369;28;20030;-22
2021/12/19 18:29:02;;;;;;;12.98;7.22;;;;;;;20.25;53.14;97457.38;10395256;28;20041;-22
2021/12/19 18:34:15;;;;;;;17.70;6.32;;;;;;;20.25;52.77;97454.84;10396305;28;20586;-22
2021/12/19 18:39:17;;;;;;;14.38;7.55;;;;;;;20.21;53.28;97453.09;10402440;28;20029;-23
2021/12/19 18:44:29;;;;;;;15.60;6.97;;;;;;;20.22;52.85;97448.03;10402564;28;20699;-23
2021/12/19 18:49:39;;;;;;;16.60;7.00;;;;;;;20.17;52.78;97446.31;10404121;28;20044;-22
2021/12/19 18:54:54;;;;;;;13.18;6.80;;;;;;;20.15;52.70;97448.84;10399051;28;20419;-22
2021/12/19 18:59:55;;;;;;;10.02;6.88;;;;;;;20.17;52.61;97443.78;10403888;28;20036;-22
2021/12/19 19:05:02;;;;;;;11.20;6.28;;;;;;;20.18;52.11;97448.03;10400010;28;20392;-22
2021/12/19 19:10:06;;;;;;;;;;;;;;;20.15;52.47;97450.53;10405899;28;20033;-22
2021/12/19 19:15:08;;;;;;;12.18;6.25;;;;;;;20.12;51.28;97455.59;10403092;28;20043;-22
2021/12/19 19:20:09;;;;;;;12.25;6.28;;;;;;;20.09;52.14;97446.25;10401027;28;20048;-22
2021/12/19 19:25:09;;;;;;;11.35;5.97;;;;;;;20.13;52.29;97457.28;10402971;28;20037;-23
2021/12/19 19:30:12;;;;;;;11.07;6.43;;;;;;;20.12;52.43;97456.47;10404726;28;20038;-22
2021/12/19 19:35:14;;;;;;;10.88;6.22;;;;;;;20.11;52.25;97464.06;10399760;28;20117;-22
2021/12/19 19:50:45;;;;;;;7.80;5.05;;;;;;;20.10;52.43;97470.84;10407102;28;20147;-23
2021/12/19 19:55:46;;;;;;;11.07;5.77;;;;;;;20.10;52.03;97462.38;10405065;28;20043;-22
2021/12/19 20:00:46;;;;;;;9.30;5.28;;;;;;;20.11;52.02;97470.00;10400289;28;20041;-22
2021/12/19 20:05:47;;;;;;;10.68;5.55;;;;;;;20.08;52.03;97475.06;10403424;28;20041;-24
2021/12/19 20:10:47;;;;;;;8.07;4.82;;;;;;;20.11;51.98;97486.97;10405000;28;20033;-23
2021/12/19 20:15:48;;;;;;;6.87;5.37;;;;;;;20.15;51.90;97486.13;10400200;28;20026;-22
2021/12/19 20:20:49;;;;;;;7.07;4.67;;;;;;;20.11;51.99;97476.78;10400097;28;20039;-22
2021/12/19 20:25:50;;;;;;;6.60;4.82;;;;;;;20.09;51.90;97468.31;10401749;28;20095;-22
2021/12/19 20:30:52;;;;;;;6.73;4.60;;;;;;;20.09;51.78;97465.78;10402174;28;20120;-22
2021/12/19 20:35:52;;;;;;;5.72;4.85;;;;;;;20.09;51.93;97461.50;10402725;28;20112;-22
2021/12/19 20:40:53;;;;;;;7.47;4.80;;;;;;;20.08;51.85;97444.56;10403533;28;20045;-23
2021/12/19 20:45:53;;;;;;;7.67;5.00;;;;;;;20.05;51.86;97444.56;10401933;28;20045;-23
2021/12/19 20:50:54;;;;;;;6.87;4.63;;;;;;;19.95;51.88;97424.13;10399654;28;20037;-23
2021/12/19 20:55:55;;;;;;;7.13;5.00;;;;;;;20.04;51.62;97447.06;10403071;28;20759;-22
2021/12/19 21:00:56;;;;;;;6.10;4.35;;;;;;;20.05;51.69;97446.25;10401332;28;20496;-22
2021/12/19 21:05:56;;;;;;;6.53;4.45;;;;;;;20.02;51.90;97454.66;10399694;28;20029;-23
2021/12/19 21:10:57;;;;;;;8.77;5.10;;;;;;;19.98;51.91;97447.88;10403044;28;20037;-23
2021/12/19 21:21:16;;;;;;;6.70;4.70;;;;;;;20.02;51.79;97441.13;10400295;28;20048;-23
2021/12/19 21:26:17;;;;;;;6.90;5.20;;;;;;;19.96;49.87;97438.53;10402773;28;20036;-22
2021/12/19 21:31:18;;;;;;;9.27;4.93;;;;;;;19.96;50.96;97444.47;10405324;28;20045;-23
2021/12/19 21:41:38;;;;;;;6.82;4.50;;;;;;;19.95;51.25;97447.88;10394046;28;20041;-22
2021/12/19 21:46:39;;;;;;;8.05;4.25;;;;;;;19.97;51.45;97452.94;10405234;28;20538;-23
2021/12/19 21:51:39;;;;;;;6.30;4.20;;;;;;;19.96;51.57;97448.69;10401673;28;20037;-22
2021/12/19 21:56:39;;;;;;;6.83;4.77;;;;;;;19.92;51.67;97442.75;10405705;28;20041;-22
2021/12/19 22:01:41;;;;;;;6.38;4.07;;;;;;;19.92;51.63;97447.81;10402215;28;20350;-22
2021/12/19 22:06:41;;;;;;;7.07;4.28;;;;;;;19.90;51.67;97438.50;10402953;28;20401;-22
2021/12/19 22:11:52;;;;;;;8.17;4.70;;;;;;;19.93;51.74;97448.69;10407121;28;20037;-23
2021/12/19 22:16:52;;;;;;;9.63;4.68;;;;;;;19.75;51.59;97418.09;10409691;28;20026;-23
2021/12/19 22:21:53;;;;;;;9.43;4.47;;;;;;;19.93;51.75;97454.59;10407428;28;20554;-23
2021/12/19 22:26:55;;;;;;;5.87;4.57;;;;;;;19.97;51.66;97440.22;10411696;28;20037;-22
2021/12/19 22:31:55;;;;;;;6.35;4.15;;;;;;;19.93;51.55;97443.63;10409369;28;20411;-23
2021/12/19 22:36:56;;;;;;;7.93;4.20;;;;;;;19.91;51.75;97435.13;10406002;28;20030;-23
2021/12/19 22:41:56;;;;;;;8.35;4.22;;;;;;;19.92;51.80;97431.75;10412226;28;20033;-23
2021/12/19 22:46:57;;;;;;;5.53;4.17;;;;;;;19.90;51.67;97434.28;10410195;28;20038;-23
2021/12/19 22:52:04;;;;;;;4.53;3.80;;;;;;;19.90;51.79;97439.34;10408548;28;20295;-22
2021/12/19 22:57:05;;;;;;;7.05;3.58;;;;;;;19.89;51.68;97427.50;10405315;28;20388;-22
2021/12/19 23:02:07;;;;;;;7.82;3.70;;;;;;;19.83;51.54;97416.44;10411292;28;20514;-23
2021/12/19 23:07:08;;;;;;;5.90;3.67;;;;;;;19.96;51.46;97425.81;10410815;28;20061;-22
2021/12/19 23:12:15;;;;;;;7.17;3.83;;;;;;;19.75;51.27;97392.69;10411223;28;20098;-23
2021/12/19 23:17:52;;;;;;;4.38;3.42;;;;;;;19.91;51.57;97422.44;10408749;28;20037;-23
2021/12/19 23:22:46;;;;;;;8.15;4.13;;;;;;;19.88;51.63;97419.84;10404031;28;20034;-23
2021/12/19 23:27:46;;;;;;;4.60;3.55;;;;;;;19.88;51.65;97415.63;10410187;28;20033;-23
2021/12/19 23:38:31;;;;;;;5.72;3.50;;;;;;;19.83;51.77;97412.19;10417448;28;20072;-23
2021/12/19 23:48:50;;;;;;;6.57;3.92;;;;;;;19.88;51.68;97396.97;10407909;28;20084;-23
2021/12/19 23:53:50;;;;;;;5.22;3.60;;;;;;;19.85;51.73;97391.88;10408768;28;20036;-23
2021/12/19 23:58:50;;;;;;;5.93;3.85;;;;;;;19.87;51.74;97392.75;10407188;28;20057;-22
